Grantsdale, Montana
Current Conditions -  °F | °C
As of 12:53 AM on Tuesday 21 Oct 2014 (Local Time) from KMSO Reporting Station
Broken Clouds Broken Clouds  
Wind Chill: 47°   Ceiling: 11000
Heat Index: 47°   Visibility: 10mi
Dew Point: 40°   Wind: 3mph
Humidity: 77%   Direction: 30°NNE
Pressure: 29.76"   Gusts: NA
Location:  46.2°N, 114.13°W
Report Text: KMSO 210653Z AUTO 03003KT 10SM BKN110 08/04 A2976 RMK AO2 SLP076 T00830044 402111011
Loading
Personal Weather Stations






























Interactive Weather Map
Tropical Storm Tracking
New forecast layout! Learn more

10-Day Weather Forecast

Advertisements
Track Severe Weather on mobile